createdAt,value
2022-11-19T00:02:01.116Z,99323.88
2022-11-19T00:04:29.128Z,99347.59
2022-11-19T00:06:58.550Z,99350.78
2022-11-19T00:09:26.622Z,99357.72
2022-11-19T00:12:11.774Z,99374.00
2022-11-19T00:14:39.737Z,99383.66
2022-11-19T00:17:07.664Z,99401.19
2022-11-19T00:19:35.589Z,99419.19
2022-11-19T00:22:04.885Z,99426.03
2022-11-19T00:24:32.814Z,99428.38
2022-11-19T00:27:00.745Z,99424.69
2022-11-19T00:29:28.650Z,99422.47
2022-11-19T00:31:56.576Z,99416.84
2022-11-19T00:34:24.491Z,99434.94
2022-11-19T00:36:52.417Z,99423.22
2022-11-19T00:39:22.270Z,99428.59
2022-11-19T00:41:50.380Z,99406.69
2022-11-19T00:44:18.332Z,99413.97
2022-11-19T00:46:46.285Z,99424.25
2022-11-19T00:49:14.186Z,99434.28
2022-11-19T00:51:42.111Z,99441.69
2022-11-19T00:54:10.033Z,99454.66
2022-11-19T00:56:39.361Z,99453.25
2022-11-19T00:59:07.316Z,99460.91
2022-11-19T01:01:35.334Z,99457.88
2022-11-19T01:04:03.348Z,99479.78
2022-11-19T01:06:31.516Z,99472.56
2022-11-19T01:08:59.675Z,99465.88
2022-11-19T01:11:29.048Z,99452.69
2022-11-19T01:13:59.709Z,99444.94
2022-11-19T01:16:29.659Z,99457.59
2022-11-19T01:18:58.049Z,99476.19
2022-11-19T01:21:29.232Z,99477.47
2022-11-19T01:23:58.223Z,99471.13
2022-11-19T01:26:26.933Z,99499.88
2022-11-19T01:28:55.709Z,99518.84
2022-11-19T01:31:26.815Z,99527.00
2022-11-19T01:33:55.544Z,99531.25
2022-11-19T01:36:26.000Z,99534.91
2022-11-19T01:38:54.699Z,99543.25
2022-11-19T01:41:24.623Z,99537.88
2022-11-19T01:43:56.176Z,99531.19
2022-11-19T01:46:27.388Z,99538.41
2022-11-19T01:48:59.833Z,99545.94
2022-11-19T01:51:31.742Z,99545.38
2022-11-19T01:54:04.974Z,99561.13
2022-11-19T01:56:33.263Z,99557.81
2022-11-19T01:59:05.188Z,99567.84
2022-11-19T02:01:34.959Z,99580.63
2022-11-19T02:04:03.984Z,99580.28
2022-11-19T02:06:32.389Z,99592.31
2022-11-19T02:09:00.325Z,99585.81
2022-11-19T02:12:10.529Z,99581.63
2022-11-19T02:15:07.228Z,99597.59
2022-11-19T02:18:08.433Z,99606.19
2022-11-19T02:20:46.782Z,99611.75
2022-11-19T02:23:54.234Z,99614.34
2022-11-19T02:27:06.876Z,99623.41
2022-11-19T02:30:10.117Z,99621.59
2022-11-19T02:33:00.912Z,99618.41
2022-11-19T02:35:40.520Z,99622.91
2022-11-19T02:38:17.513Z,99616.47
2022-11-19T02:40:50.004Z,99636.88
2022-11-19T02:43:23.004Z,99628.84
2022-11-19T02:45:57.413Z,99628.13
2022-11-19T02:48:29.876Z,99622.31
2022-11-19T02:51:02.053Z,99632.38
2022-11-19T02:53:30.245Z,99628.59
2022-11-19T02:56:13.537Z,99635.47
2022-11-19T02:59:14.992Z,99640.31
2022-11-19T03:02:04.979Z,99654.38
2022-11-19T03:04:34.059Z,99652.59
2022-11-19T03:07:06.543Z,99649.66
2022-11-19T03:09:39.077Z,99671.91
2022-11-19T03:12:18.549Z,99693.44
2022-11-19T03:15:12.680Z,99690.09
2022-11-19T03:17:54.881Z,99697.91
2022-11-19T03:20:27.910Z,99702.63
2022-11-19T03:23:01.757Z,99722.50
2022-11-19T03:25:34.352Z,99721.78
2022-11-19T03:28:06.504Z,99723.81
2022-11-19T03:30:34.783Z,99726.75
2022-11-19T03:33:08.816Z,99723.91
2022-11-19T03:35:42.015Z,99734.66
2022-11-19T03:38:14.620Z,99740.22
2022-11-19T03:40:43.948Z,99747.44
2022-11-19T03:43:17.881Z,99751.56
2022-11-19T03:45:48.693Z,99752.16
2022-11-19T03:48:18.624Z,99756.50
2022-11-19T03:50:51.024Z,99743.25
2022-11-19T03:53:20.489Z,99757.69
2022-11-19T03:55:53.961Z,99758.16
2022-11-19T03:58:25.407Z,99755.22
2022-11-19T04:00:53.723Z,99762.41
2022-11-19T04:03:23.078Z,99761.34
2022-11-19T04:05:51.005Z,99765.00
2022-11-19T04:08:18.971Z,99758.59
2022-11-19T04:10:46.892Z,99756.47
2022-11-19T04:13:14.796Z,99761.44
2022-11-19T04:15:42.721Z,99760.72
2022-11-19T04:18:10.691Z,99766.28
2022-11-19T04:20:39.975Z,99781.13
2022-11-19T04:23:07.916Z,99783.06
2022-11-19T04:25:35.852Z,99788.03
2022-11-19T04:28:03.900Z,99802.47
2022-11-19T04:30:31.848Z,99806.84
2022-11-19T04:32:59.803Z,99810.75
2022-11-19T04:35:27.912Z,99819.16
2022-11-19T04:37:57.225Z,99819.94
2022-11-19T04:40:25.142Z,99824.91
2022-11-19T04:42:53.044Z,99818.22
2022-11-19T04:45:20.976Z,99829.91
2022-11-19T04:47:48.912Z,99829.50
2022-11-19T04:50:17.050Z,99824.41
2022-11-19T04:52:44.947Z,99834.81
2022-11-19T04:55:14.253Z,99837.50
2022-11-19T04:57:42.223Z,99840.81
2022-11-19T05:00:11.300Z,99842.22
2022-11-19T05:02:39.189Z,99840.22
2022-11-19T05:05:08.173Z,99858.69
2022-11-19T05:07:36.207Z,99850.56
2022-11-19T05:10:05.061Z,99853.00
2022-11-19T05:12:34.369Z,99872.22
2022-11-19T05:15:02.288Z,99878.69
2022-11-19T05:17:30.233Z,99879.34
2022-11-19T05:19:59.631Z,99882.88
2022-11-19T05:22:27.581Z,99898.84
2022-11-19T05:24:55.505Z,99904.50
2022-11-19T05:27:23.488Z,99906.44
2022-11-19T05:29:52.836Z,99922.09
2022-11-19T05:32:20.732Z,99927.13
2022-11-19T05:34:48.628Z,99936.06
2022-11-19T05:37:16.569Z,99949.84
2022-11-19T05:39:44.491Z,99954.88
2022-11-19T05:42:12.393Z,99955.16
2022-11-19T05:44:40.317Z,99942.91
2022-11-19T05:47:09.629Z,99943.09
2022-11-19T05:49:37.569Z,99953.44
2022-11-19T05:52:06.116Z,99952.97
2022-11-19T05:54:34.182Z,99972.03
2022-11-19T05:57:02.106Z,99978.25
2022-11-19T05:59:30.034Z,99982.59
2022-11-19T06:01:57.979Z,99985.09
2022-11-19T06:04:27.296Z,99985.31
2022-11-19T06:06:55.245Z,99982.06
2022-11-19T06:09:23.341Z,99993.91
2022-11-19T06:11:51.401Z,99996.28
2022-11-19T06:14:22.148Z,100000.44
2022-11-19T06:16:51.452Z,100011.88
2022-11-19T06:19:20.393Z,100012.25
2022-11-19T06:21:50.528Z,100024.50
2022-11-19T06:24:18.851Z,100022.59
2022-11-19T06:26:46.797Z,100040.88
2022-11-19T06:29:15.920Z,100022.28
2022-11-19T06:31:43.917Z,100040.88
2022-11-19T06:34:12.126Z,100052.22
2022-11-19T06:36:44.887Z,100060.91
2022-11-19T06:39:18.486Z,100061.00
2022-11-19T06:41:48.847Z,100066.16
2022-11-19T06:44:16.928Z,100071.75
2022-11-19T06:46:44.872Z,100069.88
2022-11-19T06:49:18.429Z,100084.38
2022-11-19T06:51:47.979Z,100092.19
2022-11-19T06:54:15.899Z,100100.22
2022-11-19T06:56:45.186Z,100118.91
2022-11-19T06:59:13.118Z,100123.00
2022-11-19T07:01:41.090Z,100123.66
2022-11-19T07:04:09.121Z,100119.94
2022-11-19T07:06:37.029Z,100131.34
2022-11-19T07:09:04.977Z,100124.72
2022-11-19T07:11:32.908Z,100132.50
2022-11-19T07:14:03.909Z,100135.34
2022-11-19T07:16:34.550Z,100127.16
2022-11-19T07:19:04.560Z,100142.88
2022-11-19T07:21:32.968Z,100149.94
2022-11-19T07:24:02.417Z,100139.16
2022-11-19T07:26:32.256Z,100141.41
2022-11-19T07:29:05.051Z,100143.06
2022-11-19T07:31:33.452Z,100158.19
2022-11-19T07:34:01.492Z,100164.13
2022-11-19T07:36:29.463Z,100179.22
2022-11-19T07:38:58.529Z,100173.03
2022-11-19T07:41:43.908Z,100160.63
2022-11-19T07:44:13.207Z,100176.59
2022-11-19T07:46:41.524Z,100175.81
2022-11-19T07:49:09.519Z,100180.91
2022-11-19T07:51:37.540Z,100179.03
2022-11-19T07:54:05.720Z,100187.81
2022-11-19T07:56:33.689Z,100196.81
2022-11-19T07:59:02.079Z,100209.28
2022-11-19T08:01:31.613Z,100229.00
2022-11-19T08:03:59.742Z,100233.16
2022-11-19T08:06:29.939Z,100236.47
2022-11-19T08:08:58.138Z,100237.78
2022-11-19T08:11:26.340Z,100243.59
2022-11-19T08:13:54.405Z,100233.94
2022-11-19T08:16:36.615Z,100236.59
2022-11-19T08:19:08.327Z,100233.84
2022-11-19T08:21:37.045Z,100243.13
2022-11-19T08:24:05.426Z,100243.31
2022-11-19T08:26:33.346Z,100244.31
2022-11-19T08:29:01.324Z,100255.59
2022-11-19T08:31:29.541Z,100260.44
2022-11-19T08:33:57.445Z,100263.31
2022-11-19T08:36:26.808Z,100267.09
2022-11-19T08:38:57.338Z,100262.47
2022-11-19T08:41:48.533Z,100263.13
2022-11-19T08:44:17.996Z,100268.16
2022-11-19T08:46:46.473Z,100265.47
2022-11-19T08:49:14.844Z,100263.91
2022-11-19T08:51:44.129Z,100270.88
2022-11-19T08:54:13.195Z,100268.13
2022-11-19T08:56:41.154Z,100278.19
2022-11-19T08:59:09.156Z,100278.66
2022-11-19T09:01:37.128Z,100271.44
2022-11-19T09:04:05.212Z,100277.38
2022-11-19T09:06:35.783Z,100275.19
2022-11-19T09:09:05.807Z,100275.69
2022-11-19T09:11:37.266Z,100286.78
2022-11-19T09:14:07.551Z,100287.75
2022-11-19T09:16:38.556Z,100287.38
2022-11-19T09:19:06.456Z,100290.72
2022-11-19T09:21:34.396Z,100285.22
2022-11-19T09:24:02.331Z,100298.63
2022-11-19T09:26:31.647Z,100295.59
2022-11-19T09:28:59.588Z,100300.28
2022-11-19T09:31:27.521Z,100284.13
2022-11-19T09:33:55.617Z,100288.28
2022-11-19T09:36:23.565Z,100293.56
2022-11-19T09:38:51.503Z,100273.78
2022-11-19T09:41:51.282Z,100284.50
2022-11-19T09:44:33.472Z,100287.19
2022-11-19T09:47:13.512Z,100288.03
2022-11-19T09:49:46.437Z,100279.03
2022-11-19T09:52:18.004Z,100276.88
2022-11-19T09:54:49.556Z,100288.75
2022-11-19T09:57:27.852Z,100290.06
2022-11-19T09:59:59.985Z,100278.53
2022-11-19T10:02:28.848Z,100289.00
2022-11-19T10:04:57.263Z,100290.53
2022-11-19T10:07:36.354Z,100295.38
2022-11-19T10:10:16.676Z,100296.25
2022-11-19T10:13:11.877Z,100293.56
2022-11-19T10:15:53.051Z,100290.00
2022-11-19T10:18:31.028Z,100305.28
2022-11-19T10:21:06.155Z,100287.78
2022-11-19T10:23:45.756Z,100289.09
2022-11-19T10:26:17.096Z,100298.25
2022-11-19T10:28:53.890Z,100285.38
2022-11-19T10:31:30.325Z,100283.88
2022-11-19T10:34:05.754Z,100285.72
2022-11-19T10:36:39.447Z,100287.72
2022-11-19T10:39:15.871Z,100272.88
2022-11-19T10:41:49.442Z,100275.34
2022-11-19T10:44:40.329Z,100265.03
2022-11-19T10:47:14.332Z,100247.75
2022-11-19T10:49:43.560Z,100277.69
2022-11-19T10:52:23.557Z,100282.66
2022-11-19T10:54:53.903Z,100298.25
2022-11-19T10:57:23.321Z,100307.34
2022-11-19T10:59:54.887Z,100301.25
2022-11-19T11:02:30.651Z,100296.81
2022-11-19T11:05:17.589Z,100291.84
2022-11-19T11:07:51.553Z,100283.03
2022-11-19T11:10:36.209Z,100282.50
2022-11-19T11:13:37.879Z,100294.06
2022-11-19T11:16:09.368Z,100292.72
2022-11-19T11:18:40.738Z,100284.03
2022-11-19T11:21:13.203Z,100300.06
2022-11-19T11:23:51.190Z,100294.00
2022-11-19T11:26:23.013Z,100293.00
2022-11-19T11:29:01.135Z,100281.56
2022-11-19T11:31:36.604Z,100276.47
2022-11-19T11:34:06.211Z,100274.38
2022-11-19T11:36:37.228Z,100265.09
2022-11-19T11:39:06.772Z,100281.38
2022-11-19T11:44:30.134Z,100271.88
2022-11-19T11:47:03.725Z,100264.75
2022-11-19T11:49:35.127Z,100258.44
2022-11-19T11:52:08.415Z,100257.06
2022-11-19T11:54:37.373Z,100261.75
2022-11-19T11:57:18.749Z,100270.88
2022-11-19T11:59:47.190Z,100272.81
2022-11-19T12:02:27.298Z,100276.44
2022-11-19T12:04:56.806Z,100278.06
2022-11-19T12:07:59.230Z,100269.53
2022-11-19T12:10:31.548Z,100278.59
2022-11-19T12:13:17.728Z,100287.34
2022-11-19T12:15:56.293Z,100294.66
2022-11-19T12:18:38.532Z,100276.09
2022-11-19T12:21:12.019Z,100281.72
2022-11-19T12:23:59.679Z,100281.44
2022-11-19T12:26:36.593Z,100300.78
2022-11-19T12:29:19.431Z,100297.13
2022-11-19T12:32:08.611Z,100296.00
2022-11-19T12:34:52.030Z,100300.34
2022-11-19T12:37:33.824Z,100290.22
2022-11-19T12:40:13.149Z,100291.75
2022-11-19T12:42:53.555Z,100293.84
2022-11-19T12:45:30.656Z,100289.69
2022-11-19T12:48:18.062Z,100298.66
2022-11-19T12:50:57.366Z,100316.56
2022-11-19T12:53:45.091Z,100306.78
2022-11-19T12:56:25.240Z,100303.63
2022-11-19T12:59:03.733Z,100310.78
2022-11-19T13:01:36.963Z,100314.31
2022-11-19T13:04:12.566Z,100300.84
2022-11-19T13:06:48.506Z,100290.91
2022-11-19T13:09:19.780Z,100303.53
2022-11-19T13:11:53.921Z,100305.19
2022-11-19T13:14:28.875Z,100316.53
2022-11-19T13:16:58.120Z,100314.56
2022-11-19T13:19:30.384Z,100345.19
2022-11-19T13:22:06.427Z,100341.31
2022-11-19T13:24:40.947Z,100335.47
2022-11-19T13:27:18.828Z,100336.47
2022-11-19T13:29:54.136Z,100341.81
2022-11-19T13:32:26.865Z,100351.03
2022-11-19T13:35:04.576Z,100363.88
2022-11-19T13:37:44.883Z,100360.31
2022-11-19T13:40:21.022Z,100364.41
2022-11-19T13:46:06.581Z,100364.41
2022-11-19T13:48:39.692Z,100371.53
2022-11-19T13:51:11.132Z,100366.75
2022-11-19T13:53:45.032Z,100363.66
2022-11-19T13:56:15.585Z,100364.63
2022-11-19T13:58:48.445Z,100368.69
2022-11-19T14:01:55.232Z,100367.03
2022-11-19T14:04:46.881Z,100385.03
2022-11-19T14:07:33.831Z,100393.31
2022-11-19T14:10:15.285Z,100396.03
2022-11-19T14:13:08.204Z,100393.31
2022-11-19T14:16:13.908Z,100397.56
2022-11-19T14:19:03.773Z,100398.03
2022-11-19T14:22:09.798Z,100400.06
2022-11-19T14:25:14.517Z,100396.34
2022-11-19T14:27:44.686Z,100388.88
2022-11-19T14:30:18.692Z,100383.63
2022-11-19T14:32:48.379Z,100375.94
2022-11-19T14:35:36.237Z,100382.38
2022-11-19T14:38:39.176Z,100386.34
2022-11-19T14:41:22.253Z,100381.59
2022-11-19T14:44:11.610Z,100387.66
2022-11-19T14:46:42.153Z,100376.47
2022-11-19T14:49:34.865Z,100366.53
2022-11-19T14:52:04.028Z,100359.69
2022-11-19T14:54:37.065Z,100383.00
2022-11-19T14:57:16.780Z,100386.34
2022-11-19T14:59:52.543Z,100389.22
2022-11-19T15:02:25.980Z,100395.41
2022-11-19T15:04:58.779Z,100392.06
2022-11-19T15:07:42.227Z,100387.81
2022-11-19T15:10:29.566Z,100381.28
2022-11-19T15:13:20.445Z,100361.19
2022-11-19T15:15:54.004Z,100349.31
2022-11-19T15:18:55.862Z,100343.88
2022-11-19T15:21:47.657Z,100351.28
2022-11-19T15:24:29.580Z,100367.94
2022-11-19T15:27:05.979Z,100367.44
2022-11-19T15:29:57.118Z,100374.31
2022-11-19T15:32:35.864Z,100400.47
2022-11-19T15:35:32.863Z,100404.53
2022-11-19T15:38:06.645Z,100413.66
2022-11-19T15:40:36.357Z,100420.44
2022-11-19T15:43:12.442Z,100402.13
2022-11-19T15:45:46.100Z,100396.19
2022-11-19T15:48:20.377Z,100393.09
2022-11-19T15:50:49.731Z,100390.97
2022-11-19T15:53:19.843Z,100398.31
2022-11-19T15:55:52.810Z,100431.72
2022-11-19T15:58:25.801Z,100448.69
2022-11-19T16:00:55.616Z,100437.28
2022-11-19T16:03:25.921Z,100417.22
2022-11-19T16:06:02.986Z,100407.59
2022-11-19T16:08:31.603Z,100398.69
2022-11-19T16:11:20.560Z,100382.91
2022-11-19T16:14:09.297Z,100400.84
2022-11-19T16:16:54.849Z,100422.56
2022-11-19T16:19:24.631Z,100408.66
2022-11-19T16:21:57.335Z,100414.50
2022-11-19T16:24:44.929Z,100415.31
2022-11-19T16:27:19.498Z,100412.59
2022-11-19T16:29:47.847Z,100412.94
2022-11-19T16:32:19.016Z,100413.75
2022-11-19T16:34:48.582Z,100392.88
2022-11-19T16:37:18.543Z,100374.25
2022-11-19T16:39:51.988Z,100376.47
2022-11-19T16:42:26.136Z,100388.03
2022-11-19T16:44:56.371Z,100400.59
2022-11-19T16:47:30.253Z,100402.38
2022-11-19T16:50:04.996Z,100432.66
2022-11-19T16:52:40.967Z,100441.69
2022-11-19T16:55:40.538Z,100443.94
2022-11-19T16:58:16.262Z,100426.47
2022-11-19T17:00:49.117Z,100441.38
2022-11-19T17:03:24.585Z,100454.38
2022-11-19T17:05:54.874Z,100472.91
2022-11-19T17:08:25.268Z,100462.88
2022-11-19T17:11:35.082Z,100467.72
2022-11-19T17:14:23.723Z,100446.69
2022-11-19T17:16:53.367Z,100455.59
2022-11-19T17:19:28.903Z,100454.88
2022-11-19T17:22:01.614Z,100459.81
2022-11-19T17:24:33.145Z,100450.81
2022-11-19T17:27:01.518Z,100463.66
2022-11-19T17:29:29.549Z,100467.09
2022-11-19T17:31:57.920Z,100443.66
2022-11-19T17:34:32.061Z,100383.63
2022-11-19T17:37:01.535Z,100410.25
2022-11-19T17:39:29.484Z,100423.81
2022-11-19T17:42:15.709Z,100459.66
2022-11-19T17:44:43.833Z,100448.66
2022-11-19T17:47:24.050Z,100422.78
2022-11-19T17:49:52.853Z,100420.84
2022-11-19T17:52:24.781Z,100422.34
2022-11-19T17:54:55.017Z,100425.28
2022-11-19T17:57:23.045Z,100445.56
2022-11-19T17:59:51.210Z,100441.63
2022-11-19T18:02:21.378Z,100432.97
2022-11-19T18:04:50.010Z,100428.16
2022-11-19T18:07:18.017Z,100425.16
2022-11-19T18:09:47.571Z,100423.44
2022-11-19T18:12:17.724Z,100422.84
2022-11-19T18:14:46.274Z,100417.03
2022-11-19T18:17:15.523Z,100418.75
2022-11-19T18:19:43.603Z,100415.28
2022-11-19T18:22:18.174Z,100412.91
2022-11-19T18:24:49.951Z,100400.41
2022-11-19T18:27:18.602Z,100405.38
2022-11-19T18:29:46.853Z,100404.25
2022-11-19T18:32:17.051Z,100403.94
2022-11-19T18:34:46.121Z,100391.66
2022-11-19T18:37:14.145Z,100395.59
2022-11-19T18:39:42.089Z,100386.03
2022-11-19T18:42:12.903Z,100373.25
2022-11-19T18:44:43.371Z,100371.16
2022-11-19T18:47:12.684Z,100386.56
2022-11-19T18:49:41.129Z,100382.63
2022-11-19T18:52:12.209Z,100388.97
2022-11-19T18:54:40.151Z,100377.91
2022-11-19T18:57:08.093Z,100392.41
2022-11-19T18:59:37.405Z,100402.09
2022-11-19T19:02:05.592Z,100408.13
2022-11-19T19:04:33.743Z,100381.13
2022-11-19T19:07:01.807Z,100374.06
2022-11-19T19:09:29.816Z,100383.75
2022-11-19T19:12:15.146Z,100395.84
2022-11-19T19:14:45.543Z,100414.78
2022-11-19T19:17:14.380Z,100407.28
2022-11-19T19:19:42.870Z,100402.66
2022-11-19T19:22:10.840Z,100395.75
2022-11-19T19:24:38.993Z,100386.41
2022-11-19T19:27:06.981Z,100376.81
2022-11-19T19:29:34.964Z,100372.25
2022-11-19T19:32:04.406Z,100370.81
2022-11-19T19:34:32.341Z,100379.56
2022-11-19T19:37:00.307Z,100371.59
2022-11-19T19:39:28.266Z,100390.06
2022-11-19T19:41:56.237Z,100374.72
2022-11-19T19:44:24.170Z,100370.75
2022-11-19T19:46:52.158Z,100358.59
2022-11-19T19:49:22.299Z,100358.16
2022-11-19T19:51:50.987Z,100370.66
2022-11-19T19:54:18.926Z,100371.84
2022-11-19T19:56:46.885Z,100373.00
2022-11-19T19:59:15.348Z,100357.94
2022-11-19T20:01:47.504Z,100378.13
2022-11-19T20:04:15.660Z,100372.19
2022-11-19T20:06:47.885Z,100362.00
2022-11-19T20:09:15.869Z,100363.75
2022-11-19T20:11:43.820Z,100361.56
2022-11-19T20:14:11.830Z,100345.00
2022-11-19T20:16:41.959Z,100349.78
2022-11-19T20:19:13.188Z,100359.38
2022-11-19T20:21:41.378Z,100361.34
2022-11-19T20:24:12.958Z,100358.97
2022-11-19T20:26:42.667Z,100353.97
2022-11-19T20:29:12.911Z,100335.13
2022-11-19T20:31:41.869Z,100343.75
2022-11-19T20:34:12.052Z,100335.84
2022-11-19T20:36:40.261Z,100327.72
2022-11-19T20:39:08.296Z,100320.78
2022-11-19T20:41:55.829Z,100316.88
2022-11-19T20:44:24.160Z,100299.50
2022-11-19T20:46:54.567Z,100291.28
2022-11-19T20:49:25.342Z,100282.72
2022-11-19T20:51:54.426Z,100276.47
2022-11-19T20:54:22.975Z,100278.78
2022-11-19T20:56:53.936Z,100270.88
2022-11-19T20:59:22.566Z,100271.00
2022-11-19T21:01:51.491Z,100271.94
2022-11-19T21:04:19.846Z,100271.72
2022-11-19T21:06:49.980Z,100262.41
2022-11-19T21:09:19.593Z,100269.34
2022-11-19T21:11:48.139Z,100253.53
2022-11-19T21:14:17.493Z,100242.19
2022-11-19T21:16:45.496Z,100239.56
2022-11-19T21:19:14.150Z,100236.59
2022-11-19T21:21:42.450Z,100227.22
2022-11-19T21:24:10.472Z,100224.13
2022-11-19T21:26:38.502Z,100226.84
2022-11-19T21:29:06.441Z,100224.22
2022-11-19T21:31:42.431Z,100218.19
2022-11-19T21:34:12.163Z,100207.16
2022-11-19T21:36:42.084Z,100207.38
2022-11-19T21:39:10.784Z,100208.44
2022-11-19T21:41:39.117Z,100198.97
2022-11-19T21:44:07.509Z,100204.66
2022-11-19T21:46:37.172Z,100199.69
2022-11-19T21:49:05.592Z,100188.88
2022-11-19T21:51:33.577Z,100178.75
2022-11-19T21:54:01.650Z,100181.16
2022-11-19T21:56:35.231Z,100181.50
2022-11-19T21:59:05.118Z,100185.84
2022-11-19T22:01:33.049Z,100181.06
2022-11-19T22:04:02.363Z,100179.00
2022-11-19T22:06:31.977Z,100170.28
2022-11-19T22:09:00.056Z,100162.03
2022-11-19T22:11:31.044Z,100157.56
2022-11-19T22:14:01.467Z,100140.63
2022-11-19T22:16:29.995Z,100155.59
2022-11-19T22:18:57.921Z,100139.06
2022-11-19T22:21:29.202Z,100153.84
2022-11-19T22:23:57.531Z,100152.47
2022-11-19T22:26:26.360Z,100144.38
2022-11-19T22:28:54.394Z,100139.47
2022-11-19T22:31:22.423Z,100137.69
2022-11-19T22:33:52.095Z,100135.00
2022-11-19T22:36:21.779Z,100123.03
2022-11-19T22:38:51.872Z,100113.28
2022-11-19T22:41:22.065Z,100116.22
2022-11-19T22:43:50.879Z,100133.75
2022-11-19T22:46:19.344Z,100113.66
2022-11-19T22:48:47.573Z,100122.28
2022-11-19T22:51:16.885Z,100120.97
2022-11-19T22:53:45.483Z,100130.94
2022-11-19T22:56:17.731Z,100125.16
2022-11-19T22:58:45.726Z,100124.09
2022-11-19T23:01:16.684Z,100114.41
2022-11-19T23:03:44.938Z,100120.81
2022-11-19T23:06:12.913Z,100122.44
2022-11-19T23:08:41.057Z,100124.94
2022-11-19T23:11:09.513Z,100120.44
2022-11-19T23:13:40.094Z,100107.75
2022-11-19T23:16:10.037Z,100115.94
2022-11-19T23:18:39.800Z,100120.31
2022-11-19T23:21:09.993Z,100123.09
2022-11-19T23:23:38.450Z,100109.19
2022-11-19T23:26:08.168Z,100111.41
2022-11-19T23:28:38.470Z,100109.25
2022-11-19T23:31:08.481Z,100099.88
2022-11-19T23:33:36.504Z,100103.81
2022-11-19T23:36:06.129Z,100093.13
2022-11-19T23:38:35.330Z,100102.66
2022-11-19T23:41:05.442Z,100103.44
2022-11-19T23:43:34.038Z,100101.13
2022-11-19T23:46:07.009Z,100083.44
2022-11-19T23:48:35.640Z,100094.91
2022-11-19T23:51:04.130Z,100087.66
2022-11-19T23:53:32.213Z,100091.25
2022-11-19T23:56:00.646Z,100086.94
2022-11-19T23:58:29.215Z,100080.16
